createdAt,value
2022-08-14T00:01:57.635Z,25.60
2022-08-14T00:04:34.106Z,25.60
2022-08-14T00:07:06.046Z,25.60
2022-08-14T00:09:34.092Z,25.50
2022-08-14T00:12:24.055Z,25.50
2022-08-14T00:14:53.150Z,25.50
2022-08-14T00:17:22.349Z,25.60
2022-08-14T00:19:48.986Z,25.50
2022-08-14T00:22:44.254Z,25.60
2022-08-14T00:25:10.006Z,25.50
2022-08-14T00:27:37.641Z,25.50
2022-08-14T00:30:10.880Z,25.60
2022-08-14T00:32:52.652Z,25.60
2022-08-14T00:36:34.296Z,25.50
2022-08-14T00:38:10.370Z,25.60
2022-08-14T00:40:37.070Z,25.50
2022-08-14T00:43:04.336Z,25.60
2022-08-14T00:45:31.454Z,25.60
2022-08-14T00:47:58.422Z,25.60
2022-08-14T00:50:28.667Z,25.60
2022-08-14T00:52:56.554Z,25.50
2022-08-14T00:55:23.924Z,25.50
2022-08-14T00:58:10.807Z,25.50
2022-08-14T01:00:50.890Z,25.50
2022-08-14T01:03:20.277Z,25.50
2022-08-14T01:05:52.169Z,25.50
2022-08-14T01:08:51.434Z,25.50
2022-08-14T01:11:09.793Z,25.50
2022-08-14T01:13:42.658Z,25.50
2022-08-14T01:16:13.925Z,25.50
2022-08-14T01:19:02.112Z,25.50
2022-08-14T01:21:34.733Z,25.60
2022-08-14T01:24:10.978Z,25.50
2022-08-14T01:26:39.221Z,25.60
2022-08-14T01:29:06.585Z,25.50
2022-08-14T01:31:56.712Z,25.50
2022-08-14T01:35:17.635Z,25.50
2022-08-14T01:37:12.840Z,25.50
2022-08-14T01:39:43.267Z,25.50
2022-08-14T01:42:10.192Z,25.50
2022-08-14T01:44:57.561Z,25.50
2022-08-14T01:47:25.336Z,25.50
2022-08-14T01:49:59.330Z,25.50
2022-08-14T01:52:34.505Z,25.50
2022-08-14T01:55:18.045Z,25.50
2022-08-14T01:58:00.328Z,25.50
2022-08-14T02:00:29.596Z,25.50
2022-08-14T02:03:02.605Z,25.50
2022-08-14T02:05:35.585Z,25.50
2022-08-14T02:08:09.155Z,25.50
2022-08-14T02:10:46.003Z,25.50
2022-08-14T02:13:13.949Z,25.50
2022-08-14T02:15:43.520Z,25.50
2022-08-14T02:18:11.657Z,25.50
2022-08-14T02:20:39.333Z,25.50
2022-08-14T02:23:08.389Z,25.50
2022-08-14T02:25:36.160Z,25.50
2022-08-14T02:28:22.507Z,25.50
2022-08-14T02:30:52.677Z,25.50
2022-08-14T02:33:22.510Z,25.50
2022-08-14T02:35:53.387Z,25.50
2022-08-14T02:38:34.319Z,25.50
2022-08-14T02:41:02.425Z,25.50
2022-08-14T02:43:48.190Z,25.50
2022-08-14T02:46:20.633Z,25.50
2022-08-14T02:49:04.320Z,25.50
2022-08-14T02:51:34.011Z,25.50
2022-08-14T02:54:01.741Z,25.50
2022-08-14T02:57:14.400Z,25.50
2022-08-14T02:59:17.569Z,25.50
2022-08-14T03:01:50.653Z,25.50
2022-08-14T03:04:21.903Z,25.50
2022-08-14T03:06:57.781Z,25.50
2022-08-14T03:10:26.165Z,25.50
2022-08-14T03:12:31.582Z,25.50
2022-08-14T03:15:13.904Z,25.50
2022-08-14T03:17:57.074Z,25.50
2022-08-14T03:20:25.811Z,25.50
2022-08-14T03:22:52.728Z,25.50
2022-08-14T03:25:22.076Z,25.50
2022-08-14T03:27:58.331Z,25.50
2022-08-14T03:30:39.756Z,25.40
2022-08-14T03:33:11.129Z,25.40
2022-08-14T03:36:05.677Z,25.50
2022-08-14T03:39:10.930Z,25.50
2022-08-14T03:41:18.849Z,25.40
2022-08-14T03:43:47.651Z,25.50
2022-08-14T03:46:52.124Z,25.40
2022-08-14T03:49:14.347Z,25.50
2022-08-14T03:51:51.482Z,25.50
2022-08-14T03:54:20.803Z,25.50
2022-08-14T03:56:50.311Z,25.40
2022-08-14T03:59:18.077Z,25.40
2022-08-14T04:01:57.948Z,25.40
2022-08-14T04:04:32.129Z,25.40
2022-08-14T04:07:00.425Z,25.50
2022-08-14T04:09:27.713Z,25.40
2022-08-14T04:11:56.157Z,25.40
2022-08-14T04:14:24.847Z,25.50
2022-08-14T04:16:51.523Z,25.40
2022-08-14T04:19:23.682Z,25.40
2022-08-14T04:22:03.566Z,25.40
2022-08-14T04:24:37.767Z,25.40
2022-08-14T04:27:10.048Z,25.40
2022-08-14T04:29:42.626Z,25.40
2022-08-14T04:33:00.066Z,25.40
2022-08-14T04:34:57.584Z,25.40
2022-08-14T04:37:45.291Z,25.40
2022-08-14T04:40:32.366Z,25.40
2022-08-14T04:43:17.800Z,25.40
2022-08-14T04:45:44.889Z,25.40
2022-08-14T04:48:39.113Z,25.40
2022-08-14T04:51:03.472Z,25.40
2022-08-14T04:53:34.649Z,25.40
2022-08-14T04:56:03.204Z,25.40
2022-08-14T04:58:34.133Z,25.40
2022-08-14T05:01:05.291Z,25.40
2022-08-14T05:03:39.807Z,25.40
2022-08-14T05:06:38.272Z,25.40
2022-08-14T05:08:59.677Z,25.40
2022-08-14T05:11:26.651Z,25.40
2022-08-14T05:14:33.976Z,25.40
2022-08-14T05:16:39.904Z,25.40
2022-08-14T05:19:18.891Z,25.30
2022-08-14T05:22:15.568Z,23.80
2022-08-14T05:24:43.053Z,23.00
2022-08-14T05:27:10.447Z,22.60
2022-08-14T05:29:37.262Z,22.40
2022-08-14T05:32:07.759Z,22.20
2022-08-14T05:34:34.579Z,22.00
2022-08-14T05:37:03.243Z,22.10
2022-08-14T05:39:31.695Z,22.00
2022-08-14T05:41:59.075Z,21.80
2022-08-14T05:44:30.189Z,21.60
2022-08-14T05:46:58.510Z,21.60
2022-08-14T05:49:32.848Z,21.60
2022-08-14T05:52:01.872Z,21.70
2022-08-14T05:54:35.240Z,21.70
2022-08-14T05:57:04.569Z,21.90
2022-08-14T05:59:38.706Z,22.00
2022-08-14T06:02:07.560Z,22.10
2022-08-14T06:04:37.076Z,22.30
2022-08-14T06:07:04.288Z,22.40
2022-08-14T06:09:35.496Z,22.40
2022-08-14T06:12:03.250Z,22.40
2022-08-14T06:14:31.159Z,22.30
2022-08-14T06:16:57.812Z,22.20
2022-08-14T06:19:24.674Z,22.20
2022-08-14T06:21:58.108Z,22.10
2022-08-14T06:24:26.057Z,22.10
2022-08-14T06:26:56.768Z,22.20
2022-08-14T06:29:32.380Z,22.30
2022-08-14T06:32:36.613Z,22.40
2022-08-14T06:35:02.915Z,22.40
2022-08-14T06:37:47.040Z,22.40
2022-08-14T06:40:26.682Z,22.50
2022-08-14T06:43:03.149Z,22.60
2022-08-14T06:45:42.054Z,22.70
2022-08-14T06:48:17.173Z,22.70
2022-08-14T06:50:45.380Z,22.90
2022-08-14T06:53:14.468Z,23.30
2022-08-14T06:55:58.179Z,23.60
2022-08-14T06:58:29.256Z,23.70
2022-08-14T07:01:15.987Z,23.90
2022-08-14T07:04:01.398Z,24.00
2022-08-14T07:06:46.404Z,24.20
2022-08-14T07:09:19.811Z,24.20
2022-08-14T07:11:49.560Z,24.30
2022-08-14T07:14:16.469Z,24.30
2022-08-14T07:16:43.339Z,24.40
2022-08-14T07:19:11.429Z,24.50
2022-08-14T07:21:39.465Z,24.50
2022-08-14T07:24:06.673Z,24.50
2022-08-14T07:26:38.867Z,24.60
2022-08-14T07:29:07.823Z,24.60
2022-08-14T07:31:34.592Z,24.70
2022-08-14T07:34:04.078Z,24.70
2022-08-14T07:36:31.231Z,24.80
2022-08-14T07:39:03.095Z,24.80
2022-08-14T07:41:31.184Z,24.90
2022-08-14T07:44:28.868Z,24.90
2022-08-14T07:46:48.614Z,24.90
2022-08-14T07:49:17.723Z,25.00
2022-08-14T07:51:45.832Z,25.00
2022-08-14T07:54:23.459Z,25.10
2022-08-14T07:57:12.131Z,25.10
2022-08-14T07:59:43.724Z,25.10
2022-08-14T08:02:18.711Z,25.20
2022-08-14T08:04:49.490Z,25.20
2022-08-14T08:07:16.939Z,25.20
2022-08-14T08:09:53.121Z,25.30
2022-08-14T08:12:24.969Z,25.30
2022-08-14T08:15:03.183Z,25.30
2022-08-14T08:17:38.608Z,25.30
2022-08-14T08:20:12.472Z,25.30
2022-08-14T08:22:43.349Z,25.40
2022-08-14T08:25:17.780Z,25.40
2022-08-14T08:27:55.194Z,25.40
2022-08-14T08:30:22.177Z,25.40
2022-08-14T08:32:52.428Z,25.40
2022-08-14T08:35:22.234Z,25.40
2022-08-14T08:38:01.204Z,25.40
2022-08-14T08:40:35.662Z,25.40
2022-08-14T08:43:23.860Z,25.50
2022-08-14T08:46:21.036Z,25.50
2022-08-14T08:51:34.285Z,25.60
2022-08-14T08:54:15.369Z,25.60
2022-08-14T08:56:48.867Z,25.60
2022-08-14T08:59:19.048Z,25.60
2022-08-14T09:01:51.473Z,25.60
2022-08-14T09:04:23.365Z,25.60
2022-08-14T09:07:00.430Z,25.70
2022-08-14T09:09:54.431Z,25.70
2022-08-14T09:12:32.222Z,25.70
2022-08-14T09:15:11.889Z,25.70
2022-08-14T09:17:41.294Z,25.80
2022-08-14T09:20:11.604Z,25.70
2022-08-14T09:22:42.439Z,25.70
2022-08-14T09:25:15.904Z,25.70
2022-08-14T09:27:42.581Z,25.70
2022-08-14T09:30:31.073Z,25.70
2022-08-14T09:33:11.178Z,25.70
2022-08-14T09:36:09.053Z,25.70
2022-08-14T09:38:47.526Z,25.70
2022-08-14T09:42:21.275Z,25.60
2022-08-14T09:44:49.747Z,25.70
2022-08-14T09:47:17.214Z,25.80
2022-08-14T09:49:52.271Z,25.80
2022-08-14T09:52:33.228Z,25.90
2022-08-14T09:55:02.807Z,25.90
2022-08-14T09:57:31.072Z,25.80
2022-08-14T09:59:58.390Z,25.90
2022-08-14T10:02:28.484Z,25.80
2022-08-14T10:05:10.889Z,25.80
2022-08-14T10:07:58.945Z,25.80
2022-08-14T10:10:39.591Z,25.80
2022-08-14T10:13:24.524Z,25.80
2022-08-14T10:15:52.292Z,25.80
2022-08-14T10:18:21.279Z,25.80
2022-08-14T10:21:00.672Z,25.90
2022-08-14T10:23:38.608Z,25.90
2022-08-14T10:26:08.167Z,25.90
2022-08-14T10:29:14.077Z,25.90
2022-08-14T10:31:40.298Z,26.00
2022-08-14T10:34:14.046Z,26.00
2022-08-14T10:36:49.898Z,26.10
2022-08-14T10:39:18.644Z,26.10
2022-08-14T10:41:49.205Z,26.10
2022-08-14T10:44:25.319Z,26.20
2022-08-14T10:47:41.004Z,26.20
2022-08-14T10:49:57.904Z,26.20
2022-08-14T10:52:34.609Z,26.20
2022-08-14T10:55:09.266Z,26.20
2022-08-14T10:57:54.728Z,26.20
2022-08-14T11:00:30.306Z,26.20
2022-08-14T11:03:13.185Z,26.30
2022-08-14T11:05:49.371Z,26.30
2022-08-14T11:08:31.797Z,26.30
2022-08-14T11:11:01.989Z,26.30
2022-08-14T11:13:30.662Z,26.30
2022-08-14T11:16:02.439Z,26.30
2022-08-14T11:18:35.846Z,26.40
2022-08-14T11:21:09.369Z,26.40
2022-08-14T11:23:43.903Z,26.40
2022-08-14T11:26:11.950Z,26.40
2022-08-14T11:28:47.461Z,26.40
2022-08-14T11:31:23.447Z,26.50
2022-08-14T11:33:55.089Z,26.50
2022-08-14T11:36:35.347Z,26.50
2022-08-14T11:39:34.265Z,26.50
2022-08-14T11:42:55.533Z,26.50
2022-08-14T11:44:56.632Z,26.50
2022-08-14T11:47:26.617Z,26.50
2022-08-14T11:50:13.318Z,26.60
2022-08-14T11:52:40.470Z,26.60
2022-08-14T11:55:12.758Z,26.60
2022-08-14T11:57:41.223Z,26.60
2022-08-14T12:00:14.720Z,26.60
2022-08-14T12:03:02.793Z,26.60
2022-08-14T12:05:38.829Z,26.60
2022-08-14T12:08:12.128Z,26.60
2022-08-14T12:10:43.320Z,26.50
2022-08-14T12:13:22.346Z,26.50
2022-08-14T12:16:01.113Z,26.50
2022-08-14T12:18:38.937Z,26.40
2022-08-14T12:21:23.781Z,26.50
2022-08-14T12:24:08.446Z,26.50
2022-08-14T12:26:40.775Z,26.50
2022-08-14T12:29:08.632Z,26.50
2022-08-14T12:31:44.828Z,26.40
2022-08-14T12:34:20.405Z,26.40
2022-08-14T12:36:49.768Z,26.50
2022-08-14T12:39:23.812Z,26.50
2022-08-14T12:41:57.009Z,26.50
2022-08-14T12:44:42.861Z,26.50
2022-08-14T12:47:15.112Z,26.50
2022-08-14T12:49:54.225Z,26.60
2022-08-14T12:52:45.200Z,26.60
2022-08-14T12:55:21.843Z,26.50
2022-08-14T12:57:53.186Z,26.60
2022-08-14T13:00:24.044Z,26.50
2022-08-14T13:02:55.459Z,26.50
2022-08-14T13:05:34.912Z,26.50
2022-08-14T13:08:05.457Z,26.60
2022-08-14T13:10:51.219Z,26.60
2022-08-14T13:13:20.211Z,26.50
2022-08-14T13:15:57.348Z,26.60
2022-08-14T13:18:27.643Z,26.60
2022-08-14T13:20:57.941Z,26.60
2022-08-14T13:23:32.764Z,26.60
2022-08-14T13:26:00.413Z,26.60
2022-08-14T13:28:32.950Z,26.60
2022-08-14T13:31:04.391Z,26.60
2022-08-14T13:33:40.648Z,26.60
2022-08-14T13:36:09.329Z,26.70
2022-08-14T13:38:36.877Z,26.70
2022-08-14T13:41:03.914Z,26.70
2022-08-14T13:43:31.417Z,26.70
2022-08-14T13:46:03.797Z,26.70
2022-08-14T13:48:33.244Z,26.70
2022-08-14T13:51:07.919Z,26.70
2022-08-14T13:53:52.621Z,26.70
2022-08-14T13:56:37.206Z,26.70
2022-08-14T13:59:04.338Z,26.80
2022-08-14T14:01:43.736Z,26.70
2022-08-14T14:04:19.710Z,26.60
2022-08-14T14:06:49.131Z,26.50
2022-08-14T14:09:21.605Z,26.50
2022-08-14T14:11:52.972Z,26.50
2022-08-14T14:14:44.489Z,26.60
2022-08-14T14:17:11.398Z,26.60
2022-08-14T14:19:41.269Z,26.60
2022-08-14T14:22:09.827Z,26.60
2022-08-14T14:24:36.658Z,26.60
2022-08-14T14:27:38.872Z,26.60
2022-08-14T14:29:55.714Z,26.60
2022-08-14T14:32:32.094Z,26.60
2022-08-14T14:35:03.425Z,26.60
2022-08-14T14:37:30.693Z,26.60
2022-08-14T14:40:52.933Z,26.60
2022-08-14T14:42:53.345Z,26.70
2022-08-14T14:45:23.846Z,26.60
2022-08-14T14:47:59.374Z,26.70
2022-08-14T14:50:26.524Z,26.70
2022-08-14T14:52:53.949Z,26.70
2022-08-14T14:55:43.283Z,26.70
2022-08-14T14:58:30.376Z,26.70
2022-08-14T15:00:59.874Z,26.70
2022-08-14T15:03:26.609Z,26.70
2022-08-14T15:05:54.244Z,26.70
2022-08-14T15:08:26.873Z,26.70
2022-08-14T15:11:13.645Z,26.70
2022-08-14T15:13:43.023Z,26.70
2022-08-14T15:16:10.073Z,26.70
2022-08-14T15:18:40.182Z,26.70
2022-08-14T15:21:14.398Z,26.70
2022-08-14T15:23:44.000Z,26.70
2022-08-14T15:26:31.359Z,26.70
2022-08-14T15:29:02.089Z,26.70
2022-08-14T15:31:32.743Z,26.70
2022-08-14T15:34:43.693Z,26.70
2022-08-14T15:37:06.542Z,26.70
2022-08-14T15:39:38.510Z,26.70
2022-08-14T15:42:15.833Z,26.70
2022-08-14T15:44:56.771Z,26.70
2022-08-14T15:47:28.705Z,26.70
2022-08-14T15:49:59.287Z,26.70
2022-08-14T15:52:33.105Z,26.70
2022-08-14T15:55:14.649Z,26.70
2022-08-14T15:58:01.665Z,26.80
2022-08-14T16:00:53.048Z,26.70
2022-08-14T16:03:27.205Z,26.70
2022-08-14T16:06:15.423Z,26.70
2022-08-14T16:08:50.284Z,26.70
2022-08-14T16:11:26.802Z,26.70
2022-08-14T16:13:57.661Z,26.80
2022-08-14T16:16:49.141Z,26.80
2022-08-14T16:19:18.769Z,26.90
2022-08-14T16:22:01.295Z,26.90
2022-08-14T16:25:02.788Z,26.90
2022-08-14T16:27:39.170Z,26.90
2022-08-14T16:30:12.164Z,27.00
2022-08-14T16:32:54.909Z,27.00
2022-08-14T16:35:26.485Z,27.00
2022-08-14T16:38:44.690Z,27.10
2022-08-14T16:41:16.935Z,27.10
2022-08-14T16:43:45.689Z,27.10
2022-08-14T16:46:15.359Z,27.10
2022-08-14T16:48:55.377Z,27.10
2022-08-14T16:51:25.241Z,27.10
2022-08-14T16:53:51.986Z,27.10
2022-08-14T16:56:24.179Z,27.10
2022-08-14T16:59:08.169Z,27.10
2022-08-14T17:01:36.579Z,27.10
2022-08-14T17:04:14.885Z,27.10
2022-08-14T17:06:54.427Z,27.10
2022-08-14T17:09:33.444Z,27.10
2022-08-14T17:12:33.362Z,27.10
2022-08-14T17:15:15.093Z,27.10
2022-08-14T17:17:49.913Z,27.10
2022-08-14T17:20:53.076Z,27.20
2022-08-14T17:23:12.086Z,27.20
2022-08-14T17:25:40.363Z,27.20
2022-08-14T17:28:51.475Z,27.20
2022-08-14T17:31:05.954Z,27.20
2022-08-14T17:33:44.412Z,27.20
2022-08-14T17:36:22.505Z,27.20
2022-08-14T17:39:11.857Z,27.20
2022-08-14T17:41:43.465Z,27.30
2022-08-14T17:44:33.927Z,27.40
2022-08-14T17:47:13.479Z,27.40
2022-08-14T17:49:47.420Z,27.30
2022-08-14T17:52:34.682Z,27.30
2022-08-14T17:55:12.776Z,27.40
2022-08-14T17:57:58.219Z,27.40
2022-08-14T18:00:26.230Z,27.40
2022-08-14T18:02:54.015Z,27.40
2022-08-14T18:05:23.367Z,27.40
2022-08-14T18:08:33.879Z,27.30
2022-08-14T18:10:57.829Z,27.30
2022-08-14T18:13:49.866Z,27.20
2022-08-14T18:16:19.697Z,27.20
2022-08-14T18:18:48.475Z,27.10
2022-08-14T18:21:40.674Z,27.10
2022-08-14T18:24:02.176Z,27.10
2022-08-14T18:26:36.490Z,27.10
2022-08-14T18:29:14.959Z,27.10
2022-08-14T18:31:45.138Z,27.10
2022-08-14T18:34:31.888Z,27.20
2022-08-14T18:37:13.888Z,27.20
2022-08-14T18:40:01.333Z,27.20
2022-08-14T18:42:33.350Z,27.20
2022-08-14T18:45:01.885Z,27.20
2022-08-14T18:48:03.275Z,27.20
2022-08-14T18:50:31.012Z,27.20
2022-08-14T18:53:10.984Z,27.10
2022-08-14T18:55:37.779Z,27.20
2022-08-14T18:58:31.664Z,27.20
2022-08-14T19:01:02.024Z,27.20
2022-08-14T19:03:36.320Z,27.20
2022-08-14T19:06:10.661Z,27.20
2022-08-14T19:08:48.389Z,27.20
2022-08-14T19:11:39.489Z,27.20
2022-08-14T19:14:07.829Z,27.20
2022-08-14T19:16:36.872Z,27.20
2022-08-14T19:19:09.130Z,27.20
2022-08-14T19:21:43.439Z,27.20
2022-08-14T19:24:27.555Z,27.10
2022-08-14T19:27:19.166Z,27.10
2022-08-14T19:29:51.336Z,27.10
2022-08-14T19:32:40.791Z,27.10
2022-08-14T19:35:49.315Z,27.10
2022-08-14T19:38:53.442Z,27.10
2022-08-14T19:41:29.604Z,27.10
2022-08-14T19:44:31.629Z,27.10
2022-08-14T19:47:01.666Z,27.10
2022-08-14T19:50:30.216Z,27.10
2022-08-14T19:52:31.058Z,27.10
2022-08-14T19:55:14.844Z,27.10
2022-08-14T19:57:44.175Z,27.10
2022-08-14T20:00:29.341Z,27.10
2022-08-14T20:03:11.256Z,27.10
2022-08-14T20:05:45.759Z,27.10
2022-08-14T20:11:02.420Z,27.10
2022-08-14T20:11:20.481Z,27.10
2022-08-14T20:13:57.771Z,27.10
2022-08-14T20:16:31.884Z,27.10
2022-08-14T20:19:09.493Z,27.10
2022-08-14T20:21:37.022Z,27.10
2022-08-14T20:24:32.456Z,27.10
2022-08-14T20:27:33.606Z,27.10
2022-08-14T20:30:37.610Z,27.10
2022-08-14T20:33:10.952Z,27.10
2022-08-14T20:35:44.435Z,27.10
2022-08-14T20:38:29.182Z,27.10
2022-08-14T20:40:59.763Z,27.10
2022-08-14T20:43:53.079Z,27.10
2022-08-14T20:46:29.548Z,27.10
2022-08-14T20:49:19.174Z,27.10
2022-08-14T20:52:00.206Z,27.10
2022-08-14T20:54:36.397Z,27.10
2022-08-14T20:57:09.545Z,27.10
2022-08-14T20:59:43.316Z,27.10
2022-08-14T21:02:30.472Z,27.00
2022-08-14T21:05:16.712Z,27.00
2022-08-14T21:07:50.434Z,27.00
2022-08-14T21:10:36.407Z,27.00
2022-08-14T21:13:26.521Z,27.00
2022-08-14T21:15:57.621Z,26.90
2022-08-14T21:18:33.502Z,27.00
2022-08-14T21:21:07.016Z,26.90
2022-08-14T21:23:54.361Z,26.90
2022-08-14T21:26:50.548Z,26.90
2022-08-14T21:29:11.330Z,26.90
2022-08-14T21:31:38.841Z,26.90
2022-08-14T21:34:27.145Z,26.90
2022-08-14T21:36:54.392Z,26.90
2022-08-14T21:39:22.980Z,26.90
2022-08-14T21:41:58.805Z,26.80
2022-08-14T21:44:42.981Z,26.80
2022-08-14T21:47:12.198Z,26.80
2022-08-14T21:49:40.025Z,26.80
2022-08-14T21:52:51.794Z,26.80
2022-08-14T21:55:00.141Z,26.80
2022-08-14T21:58:46.074Z,26.80
2022-08-14T22:00:35.364Z,26.80
2022-08-14T22:03:05.610Z,26.80
2022-08-14T22:05:32.371Z,26.80
2022-08-14T22:07:59.237Z,26.80
2022-08-14T22:10:29.822Z,26.80
2022-08-14T22:13:01.136Z,26.80
2022-08-14T22:15:29.265Z,26.80
2022-08-14T22:17:58.212Z,26.80
2022-08-14T22:20:29.183Z,26.70
2022-08-14T22:23:00.743Z,26.70
2022-08-14T22:25:33.562Z,26.70
2022-08-14T22:28:04.154Z,26.70
2022-08-14T22:30:31.278Z,26.70
2022-08-14T22:33:00.156Z,26.70
2022-08-14T22:35:28.392Z,26.70
2022-08-14T22:38:36.074Z,26.70
2022-08-14T22:41:04.573Z,26.70
2022-08-14T22:43:33.551Z,26.70
2022-08-14T22:46:02.712Z,26.70
2022-08-14T22:48:33.018Z,26.60
2022-08-14T22:50:59.633Z,26.60
2022-08-14T22:53:29.293Z,26.60
2022-08-14T22:55:56.690Z,26.60
2022-08-14T22:58:31.588Z,26.60
2022-08-14T23:01:02.413Z,26.60
2022-08-14T23:03:34.076Z,26.60
2022-08-14T23:06:02.029Z,26.60
2022-08-14T23:09:01.396Z,26.60
2022-08-14T23:11:15.426Z,26.60
2022-08-14T23:13:46.087Z,26.60
2022-08-14T23:16:19.808Z,26.60
2022-08-14T23:18:54.218Z,26.60
2022-08-14T23:21:24.596Z,26.60
2022-08-14T23:23:55.084Z,26.60
2022-08-14T23:26:49.448Z,26.60
2022-08-14T23:29:15.661Z,26.60
2022-08-14T23:31:44.657Z,26.60
2022-08-14T23:34:20.572Z,26.60
2022-08-14T23:36:54.288Z,26.50
2022-08-14T23:39:30.312Z,26.50
2022-08-14T23:42:02.415Z,26.50
2022-08-14T23:44:32.236Z,26.50
2022-08-14T23:47:11.539Z,26.50
2022-08-14T23:50:00.567Z,26.50
2022-08-14T23:52:50.426Z,26.50
2022-08-14T23:55:17.173Z,26.50
2022-08-14T23:57:58.020Z,26.50
